sensor_id;sensor_type;location;lat;lon;timestamp;pressure;altitude;pressure_sealevel;temperature;humidity
76847;BME280;65813;49.546;8.644;2023-09-18T03:45:38;99797.41;;;21.96;72.17
76847;BME280;65813;49.546;8.644;2023-09-18T03:49:40;99785.56;;;22.04;72.69
76847;BME280;65813;49.546;8.644;2023-09-18T03:53:41;99808.88;;;21.92;71.98
76847;BME280;65813;49.546;8.644;2023-09-18T03:57:42;99803.69;;;22.03;69.30
76847;BME280;65813;49.546;8.644;2023-09-18T04:01:42;99800.84;;;22.11;70.30
76847;BME280;65813;49.546;8.644;2023-09-18T04:05:43;99830.34;;;21.93;69.04
76847;BME280;65813;49.546;8.644;2023-09-18T04:09:45;99839.88;;;21.89;68.67
76847;BME280;65813;49.546;8.644;2023-09-18T04:13:48;99843.16;;;21.99;68.32
76847;BME280;65813;49.546;8.644;2023-09-18T04:17:48;99852.28;;;21.92;68.69
76847;BME280;65813;49.546;8.644;2023-09-18T04:21:48;99845.84;;;21.72;71.27
76847;BME280;65813;49.546;8.644;2023-09-18T04:25:50;99826.91;;;21.50;72.74
76847;BME280;65813;49.546;8.644;2023-09-18T04:29:50;99802.41;;;21.37;75.12
76847;BME280;65813;49.546;8.644;2023-09-18T04:33:51;99770.06;;;21.36;74.55
76847;BME280;65813;49.546;8.644;2023-09-18T04:37:55;99763.22;;;21.12;77.46
76847;BME280;65813;49.546;8.644;2023-09-18T04:41:56;99755.19;;;21.04;75.74
76847;BME280;65813;49.546;8.644;2023-09-18T04:45:56;99758.69;;;20.77;76.34
76847;BME280;65813;49.546;8.644;2023-09-18T04:49:57;99755.84;;;20.85;75.68
76847;BME280;65813;49.546;8.644;2023-09-18T04:53:57;99754.28;;;20.97;76.93
76847;BME280;65813;49.546;8.644;2023-09-18T04:57:58;99757.25;;;21.02;76.14
76847;BME280;65813;49.546;8.644;2023-09-18T05:01:58;99747.84;;;21.19;73.71
76847;BME280;65813;49.546;8.644;2023-09-18T05:05:59;99722.88;;;21.24;74.41
76847;BME280;65813;49.546;8.644;2023-09-18T05:09:59;99714.19;;;21.35;72.01
76847;BME280;65813;49.546;8.644;2023-09-18T05:13:59;99709.53;;;21.56;71.27
76847;BME280;65813;49.546;8.644;2023-09-18T05:18:00;99722.66;;;21.53;71.23
76847;BME280;65813;49.546;8.644;2023-09-18T05:22:00;99741.63;;;21.04;75.12
76847;BME280;65813;49.546;8.644;2023-09-18T05:26:01;99735.50;;;20.89;75.41
76847;BME280;65813;49.546;8.644;2023-09-18T05:30:01;99745.28;;;21.11;74.78
76847;BME280;65813;49.546;8.644;2023-09-18T05:34:01;99751.91;;;21.08;76.46
76847;BME280;65813;49.546;8.644;2023-09-18T05:38:03;99772.63;;;20.95;76.93
76847;BME280;65813;49.546;8.644;2023-09-18T05:42:03;99791.38;;;20.75;78.52
76847;BME280;65813;49.546;8.644;2023-09-18T05:46:04;99810.97;;;20.77;77.98
76847;BME280;65813;49.546;8.644;2023-09-18T05:50:06;99823.84;;;20.54;79.79
76847;BME280;65813;49.546;8.644;2023-09-18T05:54:07;99830.25;;;20.53;79.81
76847;BME280;65813;49.546;8.644;2023-09-18T05:58:07;99824.78;;;20.46;80.21
76847;BME280;65813;49.546;8.644;2023-09-18T06:02:08;99793.44;;;20.37;80.32
76847;BME280;65813;49.546;8.644;2023-09-18T06:06:08;99801.91;;;20.49;80.67
76847;BME280;65813;49.546;8.644;2023-09-18T06:10:09;99802.41;;;20.74;78.31
76847;BME280;65813;49.546;8.644;2023-09-18T06:14:10;99809.03;;;20.71;80.28
76847;BME280;65813;49.546;8.644;2023-09-18T06:18:10;99834.34;;;20.63;80.09
76847;BME280;65813;49.546;8.644;2023-09-18T06:22:11;99828.75;;;20.65;80.74
76847;BME280;65813;49.546;8.644;2023-09-18T06:26:12;99829.81;;;20.35;81.54
76847;BME280;65813;49.546;8.644;2023-09-18T06:30:12;99838.31;;;19.88;84.85
76847;BME280;65813;49.546;8.644;2023-09-18T06:34:13;99846.84;;;19.62;85.76
76847;BME280;65813;49.546;8.644;2023-09-18T06:38:13;99861.13;;;19.71;85.89
76847;BME280;65813;49.546;8.644;2023-09-18T06:42:15;99866.94;;;19.82;85.71
76847;BME280;65813;49.546;8.644;2023-09-18T06:46:15;99889.47;;;19.89;85.27
76847;BME280;65813;49.546;8.644;2023-09-18T06:50:16;99889.13;;;20.07;84.76
76847;BME280;65813;49.546;8.644;2023-09-18T06:54:18;99894.28;;;20.02;83.87
76847;BME280;65813;49.546;8.644;2023-09-18T06:58:19;99916.31;;;20.28;82.09
76847;BME280;65813;49.546;8.644;2023-09-18T07:02:19;99914.34;;;20.22;82.83
76847;BME280;65813;49.546;8.644;2023-09-18T07:06:20;99904.00;;;20.40;82.33
76847;BME280;65813;49.546;8.644;2023-09-18T07:10:20;99907.19;;;20.44;81.21
76847;BME280;65813;49.546;8.644;2023-09-18T07:14:21;99907.06;;;20.52;80.81
76847;BME280;65813;49.546;8.644;2023-09-18T07:18:21;99923.03;;;20.47;81.75
76847;BME280;65813;49.546;8.644;2023-09-18T07:22:21;99922.03;;;20.48;81.55
76847;BME280;65813;49.546;8.644;2023-09-18T07:26:22;99921.91;;;20.56;80.84
76847;BME280;65813;49.546;8.644;2023-09-18T07:30:22;99929.84;;;20.57;79.86
76847;BME280;65813;49.546;8.644;2023-09-18T07:34:27;99934.69;;;20.62;80.63
76847;BME280;65813;49.546;8.644;2023-09-18T07:38:27;99936.28;;;20.56;80.19
76847;BME280;65813;49.546;8.644;2023-09-18T07:42:27;99940.38;;;20.67;80.38
76847;BME280;65813;49.546;8.644;2023-09-18T07:46:28;99930.03;;;20.71;79.14
76847;BME280;65813;49.546;8.644;2023-09-18T07:50:28;99937.13;;;20.72;79.49
76847;BME280;65813;49.546;8.644;2023-09-18T07:54:28;99949.91;;;20.78;77.58
76847;BME280;65813;49.546;8.644;2023-09-18T07:58:29;99947.66;;;20.66;78.90
76847;BME280;65813;49.546;8.644;2023-09-18T08:02:29;99963.81;;;20.75;77.43
76847;BME280;65813;49.546;8.644;2023-09-18T08:06:31;99960.72;;;20.78;77.02
76847;BME280;65813;49.546;8.644;2023-09-18T08:10:32;99980.16;;;20.66;77.37
76847;BME280;65813;49.546;8.644;2023-09-18T08:14:32;99972.69;;;20.69;77.13
76847;BME280;65813;49.546;8.644;2023-09-18T08:18:36;99977.75;;;20.72;76.50
76847;BME280;65813;49.546;8.644;2023-09-18T08:22:39;99966.69;;;20.73;76.34
76847;BME280;65813;49.546;8.644;2023-09-18T08:26:40;99953.38;;;20.72;75.71
76847;BME280;65813;49.546;8.644;2023-09-18T08:30:40;99957.28;;;20.69;76.37
76847;BME280;65813;49.546;8.644;2023-09-18T08:34:44;99952.06;;;20.67;76.48
76847;BME280;65813;49.546;8.644;2023-09-18T08:38:45;99942.50;;;20.86;75.57
76847;BME280;65813;49.546;8.644;2023-09-18T08:42:47;99950.75;;;20.78;76.34
76847;BME280;65813;49.546;8.644;2023-09-18T08:46:48;99934.81;;;20.69;77.58
76847;BME280;65813;49.546;8.644;2023-09-18T08:50:50;99932.97;;;20.90;75.62
76847;BME280;65813;49.546;8.644;2023-09-18T08:54:52;99923.50;;;20.65;78.13
76847;BME280;65813;49.546;8.644;2023-09-18T08:58:53;99918.09;;;20.65;79.09
76847;BME280;65813;49.546;8.644;2023-09-18T09:02:54;99915.66;;;20.55;78.71
76847;BME280;65813;49.546;8.644;2023-09-18T09:06:54;99926.47;;;20.55;80.45
76847;BME280;65813;49.546;8.644;2023-09-18T09:10:57;99931.81;;;20.63;80.02
76847;BME280;65813;49.546;8.644;2023-09-18T09:15:04;99953.28;;;20.65;79.13
76847;BME280;65813;49.546;8.644;2023-09-18T09:19:05;99937.50;;;20.69;80.23
76847;BME280;65813;49.546;8.644;2023-09-18T09:23:07;99927.31;;;20.71;79.60
76847;BME280;65813;49.546;8.644;2023-09-18T09:27:09;99948.22;;;20.77;78.70
76847;BME280;65813;49.546;8.644;2023-09-18T09:31:10;99965.38;;;20.84;78.33
76847;BME280;65813;49.546;8.644;2023-09-18T09:35:10;99976.88;;;20.86;78.04
76847;BME280;65813;49.546;8.644;2023-09-18T09:39:11;99988.44;;;20.94;77.67
76847;BME280;65813;49.546;8.644;2023-09-18T09:43:14;99992.09;;;20.72;77.81
76847;BME280;65813;49.546;8.644;2023-09-18T09:47:15;99993.06;;;20.64;77.90
76847;BME280;65813;49.546;8.644;2023-09-18T09:51:17;99996.47;;;20.73;77.08
76847;BME280;65813;49.546;8.644;2023-09-18T09:59:24;99985.41;;;20.68;77.67
76847;BME280;65813;49.546;8.644;2023-09-18T10:03:26;99968.38;;;20.74;76.57
76847;BME280;65813;49.546;8.644;2023-09-18T10:07:27;99962.69;;;20.69;78.17
76847;BME280;65813;49.546;8.644;2023-09-18T10:11:28;99947.19;;;20.78;76.91
76847;BME280;65813;49.546;8.644;2023-09-18T10:15:32;99943.72;;;20.84;76.91
76847;BME280;65813;49.546;8.644;2023-09-18T10:28:16;99965.94;;;20.94;76.58
76847;BME280;65813;49.546;8.644;2023-09-18T10:32:17;99966.47;;;21.04;75.96
76847;BME280;65813;49.546;8.644;2023-09-18T10:36:20;99955.09;;;20.94;76.24
76847;BME280;65813;49.546;8.644;2023-09-18T10:40:23;99956.47;;;21.04;75.00
76847;BME280;65813;49.546;8.644;2023-09-18T10:44:26;99958.72;;;21.01;75.41
76847;BME280;65813;49.546;8.644;2023-09-18T10:48:28;99957.03;;;21.14;74.99
76847;BME280;65813;49.546;8.644;2023-09-18T10:52:28;99951.06;;;21.19;75.39
76847;BME280;65813;49.546;8.644;2023-09-18T10:56:30;99959.72;;;21.29;74.75
76847;BME280;65813;49.546;8.644;2023-09-18T11:00:31;99960.31;;;21.46;74.52
76847;BME280;65813;49.546;8.644;2023-09-18T11:04:36;99944.56;;;21.56;73.65
76847;BME280;65813;49.546;8.644;2023-09-18T11:08:44;99952.41;;;21.72;73.77
76847;BME280;65813;49.546;8.644;2023-09-18T11:12:45;99951.59;;;21.93;72.91
76847;BME280;65813;49.546;8.644;2023-09-18T11:16:49;99947.13;;;21.85;72.53
76847;BME280;65813;49.546;8.644;2023-09-18T11:21:09;99955.13;;;21.93;72.32
76847;BME280;65813;49.546;8.644;2023-09-18T11:29:36;99954.13;;;21.94;72.54
76847;BME280;65813;49.546;8.644;2023-09-18T11:33:38;99942.47;;;22.00;71.74
76847;BME280;65813;49.546;8.644;2023-09-18T11:37:39;99943.31;;;22.01;72.00
76847;BME280;65813;49.546;8.644;2023-09-18T11:41:40;99955.84;;;22.02;71.11
76847;BME280;65813;49.546;8.644;2023-09-18T11:45:42;99950.53;;;22.15;71.05
76847;BME280;65813;49.546;8.644;2023-09-18T11:49:46;99953.38;;;22.07;70.34
76847;BME280;65813;49.546;8.644;2023-09-18T11:53:54;99955.75;;;22.17;70.25
76847;BME280;65813;49.546;8.644;2023-09-18T11:57:56;99950.66;;;22.35;70.32
76847;BME280;65813;49.546;8.644;2023-09-18T12:02:01;99947.84;;;22.22;68.60
76847;BME280;65813;49.546;8.644;2023-09-18T12:06:06;99964.25;;;22.41;69.09
76847;BME280;65813;49.546;8.644;2023-09-18T12:10:09;99959.66;;;22.42;67.69
76847;BME280;65813;49.546;8.644;2023-09-18T12:14:10;99961.69;;;22.61;68.17
76847;BME280;65813;49.546;8.644;2023-09-18T12:18:11;99942.34;;;22.71;66.78
76847;BME280;65813;49.546;8.644;2023-09-18T12:22:12;99940.38;;;22.58;68.06
76847;BME280;65813;49.546;8.644;2023-09-18T12:26:14;99952.41;;;22.49;67.78
76847;BME280;65813;49.546;8.644;2023-09-18T12:30:16;99956.91;;;22.35;67.37
76847;BME280;65813;49.546;8.644;2023-09-18T12:34:21;99938.16;;;22.40;67.26
76847;BME280;65813;49.546;8.644;2023-09-18T12:38:22;99954.91;;;22.44;67.04
76847;BME280;65813;49.546;8.644;2023-09-18T12:42:27;99951.81;;;22.53;66.14
76847;BME280;65813;49.546;8.644;2023-09-18T12:46:29;99939.34;;;22.65;65.67
76847;BME280;65813;49.546;8.644;2023-09-18T12:50:30;99955.81;;;22.57;65.79
76847;BME280;65813;49.546;8.644;2023-09-18T12:54:37;99955.38;;;22.54;66.02
76847;BME280;65813;49.546;8.644;2023-09-18T12:58:38;99953.84;;;22.45;64.58
76847;BME280;65813;49.546;8.644;2023-09-18T13:02:39;99945.69;;;22.45;65.06
76847;BME280;65813;49.546;8.644;2023-09-18T13:06:40;99943.84;;;22.52;64.36
76847;BME280;65813;49.546;8.644;2023-09-18T13:10:48;99939.13;;;22.60;64.00
76847;BME280;65813;49.546;8.644;2023-09-18T13:15:02;99937.56;;;22.79;62.67
76847;BME280;65813;49.546;8.644;2023-09-18T13:19:04;99921.97;;;23.01;62.47
76847;BME280;65813;49.546;8.644;2023-09-18T13:23:04;99923.38;;;22.84;62.59
76847;BME280;65813;49.546;8.644;2023-09-18T13:27:05;99917.06;;;22.77;62.42
76847;BME280;65813;49.546;8.644;2023-09-18T13:31:05;99926.09;;;22.84;63.56
76847;BME280;65813;49.546;8.644;2023-09-18T13:35:07;99920.69;;;22.90;62.51
76847;BME280;65813;49.546;8.644;2023-09-18T13:39:07;99911.69;;;22.90;62.53
76847;BME280;65813;49.546;8.644;2023-09-18T13:43:09;99917.56;;;22.93;63.11
76847;BME280;65813;49.546;8.644;2023-09-18T13:47:09;99908.38;;;22.94;61.59
76847;BME280;65813;49.546;8.644;2023-09-18T13:51:10;99903.06;;;22.73;61.97
76847;BME280;65813;49.546;8.644;2023-09-18T13:55:10;99905.66;;;22.53;62.37
76847;BME280;65813;49.546;8.644;2023-09-18T13:59:10;99892.34;;;22.65;63.33
76847;BME280;65813;49.546;8.644;2023-09-18T14:03:11;99885.78;;;22.94;62.85
76847;BME280;65813;49.546;8.644;2023-09-18T14:07:15;99884.16;;;22.99;61.59
76847;BME280;65813;49.546;8.644;2023-09-18T14:11:16;99876.22;;;23.11;62.12
76847;BME280;65813;49.546;8.644;2023-09-18T14:15:18;99876.25;;;23.31;60.84
76847;BME280;65813;49.546;8.644;2023-09-18T14:19:19;99871.72;;;23.64;59.78
76847;BME280;65813;49.546;8.644;2023-09-18T14:23:19;99860.38;;;23.87;59.43
76847;BME280;65813;49.546;8.644;2023-09-18T14:27:20;99857.66;;;23.93;59.25
76847;BME280;65813;49.546;8.644;2023-09-18T14:31:20;99864.38;;;23.45;59.34
76847;BME280;65813;49.546;8.644;2023-09-18T14:35:20;99853.25;;;23.40;59.60
76847;BME280;65813;49.546;8.644;2023-09-18T14:39:23;99871.91;;;23.43;59.14
76847;BME280;65813;49.546;8.644;2023-09-18T14:43:23;99855.81;;;23.74;58.96
76847;BME280;65813;49.546;8.644;2023-09-18T14:47:25;99848.06;;;23.84;59.15
76847;BME280;65813;49.546;8.644;2023-09-18T14:51:25;99847.84;;;23.66;58.14
76847;BME280;65813;49.546;8.644;2023-09-18T14:55:25;99842.38;;;23.79;58.24
76847;BME280;65813;49.546;8.644;2023-09-18T14:59:26;99829.47;;;23.61;57.46
76847;BME280;65813;49.546;8.644;2023-09-18T15:03:26;99819.41;;;23.49;58.08
76847;BME280;65813;49.546;8.644;2023-09-18T15:07:26;99811.88;;;23.64;56.96
76847;BME280;65813;49.546;8.644;2023-09-18T15:11:27;99803.72;;;23.57;56.80
76847;BME280;65813;49.546;8.644;2023-09-18T15:15:27;99791.75;;;23.78;56.74
76847;BME280;65813;49.546;8.644;2023-09-18T15:19:28;99775.88;;;23.62;56.86
76847;BME280;65813;49.546;8.644;2023-09-18T15:23:28;99800.53;;;23.87;56.72
76847;BME280;65813;49.546;8.644;2023-09-18T15:27:30;99797.78;;;23.93;56.22
76847;BME280;65813;49.546;8.644;2023-09-18T15:31:30;99793.44;;;23.86;55.97
76847;BME280;65813;49.546;8.644;2023-09-18T15:35:30;99784.00;;;23.82;55.16
76847;BME280;65813;49.546;8.644;2023-09-18T15:39:31;99785.72;;;23.56;56.37
76847;BME280;65813;49.546;8.644;2023-09-18T15:43:33;99782.16;;;23.62;56.34
76847;BME280;65813;49.546;8.644;2023-09-18T15:47:33;99781.72;;;23.59;55.97
76847;BME280;65813;49.546;8.644;2023-09-18T15:51:33;99781.13;;;23.50;55.86
76847;BME280;65813;49.546;8.644;2023-09-18T15:55:34;99787.00;;;23.54;56.33
76847;BME280;65813;49.546;8.644;2023-09-18T15:59:34;99786.34;;;23.52;55.88
76847;BME280;65813;49.546;8.644;2023-09-18T16:03:35;99787.59;;;23.49;56.28
76847;BME280;65813;49.546;8.644;2023-09-18T16:07:36;99776.72;;;23.36;55.87
76847;BME280;65813;49.546;8.644;2023-09-18T16:11:37;99779.63;;;23.35;56.54
76847;BME280;65813;49.546;8.644;2023-09-18T16:15:37;99771.06;;;23.25;57.04
76847;BME280;65813;49.546;8.644;2023-09-18T16:19:37;99763.75;;;23.05;57.06
76847;BME280;65813;49.546;8.644;2023-09-18T16:23:38;99772.50;;;22.94;57.16
76847;BME280;65813;49.546;8.644;2023-09-18T16:27:38;99794.25;;;22.94;57.53
76847;BME280;65813;49.546;8.644;2023-09-18T16:31:38;99780.84;;;22.93;57.15
76847;BME280;65813;49.546;8.644;2023-09-18T16:35:39;99778.78;;;22.88;57.34
76847;BME280;65813;49.546;8.644;2023-09-18T16:39:39;99773.75;;;22.79;57.45
76847;BME280;65813;49.546;8.644;2023-09-18T16:43:39;99769.94;;;22.67;57.99
76847;BME280;65813;49.546;8.644;2023-09-18T16:47:40;99785.84;;;22.70;58.27
76847;BME280;65813;49.546;8.644;2023-09-18T16:51:40;99795.81;;;22.62;58.80
76847;BME280;65813;49.546;8.644;2023-09-18T16:55:42;99793.38;;;22.68;58.46
76847;BME280;65813;49.546;8.644;2023-09-18T16:59:42;99803.53;;;22.59;58.73
76847;BME280;65813;49.546;8.644;2023-09-18T17:03:42;99806.66;;;22.56;58.96
76847;BME280;65813;49.546;8.644;2023-09-18T17:07:46;99806.66;;;22.56;59.68
76847;BME280;65813;49.546;8.644;2023-09-18T17:11:46;99817.69;;;22.48;60.20
76847;BME280;65813;49.546;8.644;2023-09-18T17:15:47;99814.94;;;22.41;60.34
76847;BME280;65813;49.546;8.644;2023-09-18T17:19:47;99814.56;;;22.44;60.61
76847;BME280;65813;49.546;8.644;2023-09-18T17:23:48;99815.16;;;22.40;60.68
76847;BME280;65813;49.546;8.644;2023-09-18T17:27:48;99831.06;;;22.43;60.73
76847;BME280;65813;49.546;8.644;2023-09-18T17:31:48;99829.38;;;22.48;60.65
76847;BME280;65813;49.546;8.644;2023-09-18T17:35:49;99839.41;;;22.48;61.19
76847;BME280;65813;49.546;8.644;2023-09-18T17:39:49;99844.22;;;22.46;62.79
76847;BME280;65813;49.546;8.644;2023-09-18T17:43:50;99845.31;;;22.17;65.30
76847;BME280;65813;49.546;8.644;2023-09-18T17:47:50;99872.22;;;21.84;69.17
76847;BME280;65813;49.546;8.644;2023-09-18T17:51:50;99888.63;;;21.27;72.38
76847;BME280;65813;49.546;8.644;2023-09-18T17:55:50;99865.47;;;20.89;74.03
76847;BME280;65813;49.546;8.644;2023-09-18T17:59:51;99835.22;;;20.85;75.82
76847;BME280;65813;49.546;8.644;2023-09-18T18:03:52;99765.78;;;21.20;73.94
76847;BME280;65813;49.546;8.644;2023-09-18T18:07:57;99761.72;;;21.09;75.20
76847;BME280;65813;49.546;8.644;2023-09-18T18:11:58;99809.44;;;20.68;77.05
76847;BME280;65813;49.546;8.644;2023-09-18T18:15:58;99818.94;;;20.64;76.57
76847;BME280;65813;49.546;8.644;2023-09-18T18:19:58;99808.63;;;20.53;76.80
76847;BME280;65813;49.546;8.644;2023-09-18T18:23:59;99804.59;;;20.49;75.58
76847;BME280;65813;49.546;8.644;2023-09-18T18:27:59;99813.00;;;20.54;73.58
76847;BME280;65813;49.546;8.644;2023-09-18T18:31:59;99798.03;;;20.37;74.15
76847;BME280;65813;49.546;8.644;2023-09-18T18:36:00;99822.56;;;20.35;73.67
76847;BME280;65813;49.546;8.644;2023-09-18T18:40:00;99826.88;;;20.30;74.44
76847;BME280;65813;49.546;8.644;2023-09-18T18:44:01;99838.53;;;20.30;72.80
76847;BME280;65813;49.546;8.644;2023-09-18T18:48:01;99852.88;;;20.16;73.38
76847;BME280;65813;49.546;8.644;2023-09-18T18:52:02;99865.09;;;20.12;73.24
76847;BME280;65813;49.546;8.644;2023-09-18T18:56:03;99871.91;;;20.23;72.64
76847;BME280;65813;49.546;8.644;2023-09-18T19:00:04;99858.25;;;19.87;73.49
76847;BME280;65813;49.546;8.644;2023-09-18T19:04:11;99872.53;;;19.95;73.30
76847;BME280;65813;49.546;8.644;2023-09-18T19:08:11;99876.72;;;19.83;71.24
76847;BME280;65813;49.546;8.644;2023-09-18T19:12:11;99874.28;;;19.74;71.96
76847;BME280;65813;49.546;8.644;2023-09-18T19:16:12;99866.81;;;19.61;71.32
76847;BME280;65813;49.546;8.644;2023-09-18T19:20:15;99875.44;;;19.11;72.98
76847;BME280;65813;49.546;8.644;2023-09-18T19:24:16;99880.84;;;18.88;72.52
76847;BME280;65813;49.546;8.644;2023-09-18T19:28:17;99914.19;;;18.64;74.04
76847;BME280;65813;49.546;8.644;2023-09-18T19:32:18;99910.88;;;18.54;74.34
76847;BME280;65813;49.546;8.644;2023-09-18T19:36:18;99919.97;;;18.45;75.12
76847;BME280;65813;49.546;8.644;2023-09-18T19:40:19;99943.25;;;18.38;76.59
76847;BME280;65813;49.546;8.644;2023-09-18T19:44:19;99947.16;;;18.28;77.89
76847;BME280;65813;49.546;8.644;2023-09-18T19:48:19;99933.31;;;18.31;79.04
76847;BME280;65813;49.546;8.644;2023-09-18T19:52:20;99947.97;;;18.44;78.25
76847;BME280;65813;49.546;8.644;2023-09-18T19:56:22;99958.22;;;18.49;78.86
76847;BME280;65813;49.546;8.644;2023-09-18T20:00:23;99948.28;;;18.57;78.97
76847;BME280;65813;49.546;8.644;2023-09-18T20:04:23;99953.03;;;18.31;79.33
76847;BME280;65813;49.546;8.644;2023-09-18T20:08:23;99957.91;;;18.44;78.46
76847;BME280;65813;49.546;8.644;2023-09-18T20:12:25;99958.59;;;18.38;80.02
76847;BME280;65813;49.546;8.644;2023-09-18T20:16:27;99962.03;;;18.24;80.21
76847;BME280;65813;49.546;8.644;2023-09-18T20:20:28;99966.38;;;18.25;80.07
76847;BME280;65813;49.546;8.644;2023-09-18T20:24:29;99966.25;;;18.10;81.15
76847;BME280;65813;49.546;8.644;2023-09-18T20:28:30;99979.06;;;18.16;80.81
76847;BME280;65813;49.546;8.644;2023-09-18T20:32:31;99988.16;;;18.15;80.71
76847;BME280;65813;49.546;8.644;2023-09-18T20:36:33;99991.34;;;18.10;80.76
76847;BME280;65813;49.546;8.644;2023-09-18T20:40:33;99977.19;;;18.08;80.35
76847;BME280;65813;49.546;8.644;2023-09-18T20:44:36;99980.91;;;18.24;79.92
76847;BME280;65813;49.546;8.644;2023-09-18T20:48:37;100000.78;;;18.23;79.20
76847;BME280;65813;49.546;8.644;2023-09-18T20:52:37;99993.53;;;18.07;80.22
76847;BME280;65813;49.546;8.644;2023-09-18T20:56:39;100009.56;;;18.08;79.61
76847;BME280;65813;49.546;8.644;2023-09-18T21:00:39;100002.97;;;18.19;79.36
76847;BME280;65813;49.546;8.644;2023-09-18T21:04:39;100002.47;;;18.07;80.59
76847;BME280;65813;49.546;8.644;2023-09-18T21:08:40;99999.13;;;17.81;81.29
76847;BME280;65813;49.546;8.644;2023-09-18T21:12:43;100005.50;;;17.96;81.13
